sensor_id;sensor_type;location;lat;lon;timestamp;temperature;humidity
26621;DHT22;14253;44.840;10.444;2023-05-07T00:00:21;17.70;99.90
26621;DHT22;14253;44.840;10.444;2023-05-07T00:02:47;17.80;99.90
26621;DHT22;14253;44.840;10.444;2023-05-07T00:05:13;17.80;99.90
26621;DHT22;14253;44.840;10.444;2023-05-07T00:07:40;17.80;99.90
26621;DHT22;14253;44.840;10.444;2023-05-07T00:10:06;17.80;99.90
26621;DHT22;14253;44.840;10.444;2023-05-07T00:12:33;17.80;99.90
26621;DHT22;14253;44.840;10.444;2023-05-07T00:15:03;17.90;99.90
26621;DHT22;14253;44.840;10.444;2023-05-07T00:17:29;17.90;99.90
26621;DHT22;14253;44.840;10.444;2023-05-07T00:19:55;17.80;99.90
26621;DHT22;14253;44.840;10.444;2023-05-07T00:22:21;17.80;99.90
26621;DHT22;14253;44.840;10.444;2023-05-07T00:24:47;17.90;99.90
26621;DHT22;14253;44.840;10.444;2023-05-07T00:27:13;17.90;99.90
26621;DHT22;14253;44.840;10.444;2023-05-07T00:29:39;17.90;99.90
26621;DHT22;14253;44.840;10.444;2023-05-07T00:32:05;17.80;99.90
26621;DHT22;14253;44.840;10.444;2023-05-07T00:34:31;17.80;99.90
26621;DHT22;14253;44.840;10.444;2023-05-07T00:36:57;17.70;99.90
26621;DHT22;14253;44.840;10.444;2023-05-07T00:39:23;17.70;99.90
26621;DHT22;14253;44.840;10.444;2023-05-07T00:41:49;17.70;99.90
26621;DHT22;14253;44.840;10.444;2023-05-07T00:44:17;17.60;99.90
26621;DHT22;14253;44.840;10.444;2023-05-07T00:46:44;17.70;99.90
26621;DHT22;14253;44.840;10.444;2023-05-07T00:49:10;17.70;99.90
26621;DHT22;14253;44.840;10.444;2023-05-07T00:51:37;17.60;99.90
26621;DHT22;14253;44.840;10.444;2023-05-07T00:54:03;17.60;99.90
26621;DHT22;14253;44.840;10.444;2023-05-07T00:56:29;17.50;99.90
26621;DHT22;14253;44.840;10.444;2023-05-07T00:58:56;17.40;99.90
26621;DHT22;14253;44.840;10.444;2023-05-07T01:01:22;17.50;99.90
26621;DHT22;14253;44.840;10.444;2023-05-07T01:03:48;17.50;99.90
26621;DHT22;14253;44.840;10.444;2023-05-07T01:06:14;17.40;99.90
26621;DHT22;14253;44.840;10.444;2023-05-07T01:08:43;17.40;99.90
26621;DHT22;14253;44.840;10.444;2023-05-07T01:11:09;17.30;99.90
26621;DHT22;14253;44.840;10.444;2023-05-07T01:13:36;17.40;99.90
26621;DHT22;14253;44.840;10.444;2023-05-07T01:16:04;17.20;99.90
26621;DHT22;14253;44.840;10.444;2023-05-07T01:18:30;17.20;99.90
26621;DHT22;14253;44.840;10.444;2023-05-07T01:20:58;17.10;99.90
26621;DHT22;14253;44.840;10.444;2023-05-07T01:23:27;17.20;99.90
26621;DHT22;14253;44.840;10.444;2023-05-07T01:25:54;17.10;99.90
26621;DHT22;14253;44.840;10.444;2023-05-07T01:28:22;17.00;99.90
26621;DHT22;14253;44.840;10.444;2023-05-07T01:30:59;17.00;99.90
26621;DHT22;14253;44.840;10.444;2023-05-07T01:33:29;17.10;99.90
26621;DHT22;14253;44.840;10.444;2023-05-07T01:35:57;17.00;99.90
26621;DHT22;14253;44.840;10.444;2023-05-07T01:38:27;17.00;99.90
26621;DHT22;14253;44.840;10.444;2023-05-07T01:40:54;16.90;99.90
26621;DHT22;14253;44.840;10.444;2023-05-07T01:43:20;16.90;99.90
26621;DHT22;14253;44.840;10.444;2023-05-07T01:45:47;17.10;99.90
26621;DHT22;14253;44.840;10.444;2023-05-07T01:48:15;17.10;99.90
26621;DHT22;14253;44.840;10.444;2023-05-07T01:50:42;17.00;99.90
26621;DHT22;14253;44.840;10.444;2023-05-07T01:53:08;16.90;99.90
26621;DHT22;14253;44.840;10.444;2023-05-07T01:55:34;16.80;99.90
26621;DHT22;14253;44.840;10.444;2023-05-07T01:58:03;16.70;99.90
26621;DHT22;14253;44.840;10.444;2023-05-07T02:00:29;16.80;99.90
26621;DHT22;14253;44.840;10.444;2023-05-07T02:02:56;16.80;99.90
26621;DHT22;14253;44.840;10.444;2023-05-07T02:05:48;16.70;99.90
26621;DHT22;14253;44.840;10.444;2023-05-07T02:08:34;16.70;99.90
26621;DHT22;14253;44.840;10.444;2023-05-07T02:11:00;16.60;99.90
26621;DHT22;14253;44.840;10.444;2023-05-07T02:13:32;16.60;99.90
26621;DHT22;14253;44.840;10.444;2023-05-07T02:16:00;16.60;99.90
26621;DHT22;14253;44.840;10.444;2023-05-07T02:18:27;16.60;99.90
26621;DHT22;14253;44.840;10.444;2023-05-07T02:20:53;16.70;99.90
26621;DHT22;14253;44.840;10.444;2023-05-07T02:23:19;16.70;99.90
26621;DHT22;14253;44.840;10.444;2023-05-07T02:25:45;16.80;99.90
26621;DHT22;14253;44.840;10.444;2023-05-07T02:28:12;16.70;99.90
26621;DHT22;14253;44.840;10.444;2023-05-07T02:30:48;16.80;99.90
26621;DHT22;14253;44.840;10.444;2023-05-07T02:33:14;16.70;99.90
26621;DHT22;14253;44.840;10.444;2023-05-07T02:35:40;16.70;99.90
26621;DHT22;14253;44.840;10.444;2023-05-07T02:38:07;16.70;99.90
26621;DHT22;14253;44.840;10.444;2023-05-07T02:40:34;16.60;99.90
26621;DHT22;14253;44.840;10.444;2023-05-07T02:43:04;16.50;99.90
26621;DHT22;14253;44.840;10.444;2023-05-07T02:45:32;16.50;99.90
26621;DHT22;14253;44.840;10.444;2023-05-07T02:47:59;16.30;99.90
26621;DHT22;14253;44.840;10.444;2023-05-07T02:50:25;16.20;99.90
26621;DHT22;14253;44.840;10.444;2023-05-07T02:52:52;16.20;99.90
26621;DHT22;14253;44.840;10.444;2023-05-07T02:55:19;16.20;99.90
26621;DHT22;14253;44.840;10.444;2023-05-07T02:57:44;16.20;99.90
26621;DHT22;14253;44.840;10.444;2023-05-07T03:00:14;16.10;99.90
26621;DHT22;14253;44.840;10.444;2023-05-07T03:02:48;16.10;99.90
26621;DHT22;14253;44.840;10.444;2023-05-07T03:05:14;15.90;99.90
26621;DHT22;14253;44.840;10.444;2023-05-07T03:07:40;15.90;99.90
26621;DHT22;14253;44.840;10.444;2023-05-07T03:10:09;15.80;99.90
26621;DHT22;14253;44.840;10.444;2023-05-07T03:12:35;15.80;99.90
26621;DHT22;14253;44.840;10.444;2023-05-07T03:15:01;15.80;99.90
26621;DHT22;14253;44.840;10.444;2023-05-07T03:17:27;15.80;99.90
26621;DHT22;14253;44.840;10.444;2023-05-07T03:19:53;15.80;99.90
26621;DHT22;14253;44.840;10.444;2023-05-07T03:22:19;15.70;99.90
26621;DHT22;14253;44.840;10.444;2023-05-07T03:24:46;15.90;99.90
26621;DHT22;14253;44.840;10.444;2023-05-07T03:27:12;15.90;99.90
26621;DHT22;14253;44.840;10.444;2023-05-07T03:29:38;15.80;99.90
26621;DHT22;14253;44.840;10.444;2023-05-07T03:32:04;15.80;99.90
26621;DHT22;14253;44.840;10.444;2023-05-07T03:34:31;15.80;99.90
26621;DHT22;14253;44.840;10.444;2023-05-07T03:36:57;15.90;99.90
26621;DHT22;14253;44.840;10.444;2023-05-07T03:39:24;15.90;99.90
26621;DHT22;14253;44.840;10.444;2023-05-07T03:41:50;16.00;99.90
26621;DHT22;14253;44.840;10.444;2023-05-07T03:44:16;15.90;99.90
26621;DHT22;14253;44.840;10.444;2023-05-07T03:46:41;15.90;99.90
26621;DHT22;14253;44.840;10.444;2023-05-07T03:49:10;15.90;99.90
26621;DHT22;14253;44.840;10.444;2023-05-07T03:51:36;15.90;99.90
26621;DHT22;14253;44.840;10.444;2023-05-07T03:54:04;15.90;99.90
26621;DHT22;14253;44.840;10.444;2023-05-07T03:56:31;15.90;99.90
26621;DHT22;14253;44.840;10.444;2023-05-07T03:58:58;15.80;99.90
26621;DHT22;14253;44.840;10.444;2023-05-07T04:01:24;15.80;99.90
26621;DHT22;14253;44.840;10.444;2023-05-07T04:03:50;15.80;99.90
26621;DHT22;14253;44.840;10.444;2023-05-07T04:06:16;15.90;99.90
26621;DHT22;14253;44.840;10.444;2023-05-07T04:08:47;15.90;99.90
26621;DHT22;14253;44.840;10.444;2023-05-07T04:11:13;15.90;99.90
26621;DHT22;14253;44.840;10.444;2023-05-07T04:13:39;15.80;99.90
26621;DHT22;14253;44.840;10.444;2023-05-07T04:16:08;15.80;99.90
26621;DHT22;14253;44.840;10.444;2023-05-07T04:18:35;15.60;99.90
26621;DHT22;14253;44.840;10.444;2023-05-07T04:21:01;15.60;99.90
26621;DHT22;14253;44.840;10.444;2023-05-07T04:23:27;15.50;99.90
26621;DHT22;14253;44.840;10.444;2023-05-07T04:25:54;15.50;99.90
26621;DHT22;14253;44.840;10.444;2023-05-07T04:28:30;15.50;99.90
26621;DHT22;14253;44.840;10.444;2023-05-07T04:30:58;15.50;99.90
26621;DHT22;14253;44.840;10.444;2023-05-07T04:33:25;15.60;99.90
26621;DHT22;14253;44.840;10.444;2023-05-07T04:35:51;15.50;99.90
26621;DHT22;14253;44.840;10.444;2023-05-07T04:38:17;15.40;99.90
26621;DHT22;14253;44.840;10.444;2023-05-07T04:40:45;15.50;99.90
26621;DHT22;14253;44.840;10.444;2023-05-07T04:43:16;15.50;99.90
26621;DHT22;14253;44.840;10.444;2023-05-07T04:45:47;15.60;99.90
26621;DHT22;14253;44.840;10.444;2023-05-07T04:48:15;15.60;99.90
26621;DHT22;14253;44.840;10.444;2023-05-07T04:50:42;15.60;99.90
26621;DHT22;14253;44.840;10.444;2023-05-07T04:53:08;15.70;99.90
26621;DHT22;14253;44.840;10.444;2023-05-07T04:55:35;15.70;99.90
26621;DHT22;14253;44.840;10.444;2023-05-07T04:58:01;15.70;99.90
26621;DHT22;14253;44.840;10.444;2023-05-07T05:00:29;15.70;99.90
26621;DHT22;14253;44.840;10.444;2023-05-07T05:02:56;15.70;99.90
26621;DHT22;14253;44.840;10.444;2023-05-07T05:05:22;15.70;99.90
26621;DHT22;14253;44.840;10.444;2023-05-07T05:07:51;15.70;99.90
26621;DHT22;14253;44.840;10.444;2023-05-07T05:10:18;15.90;99.90
26621;DHT22;14253;44.840;10.444;2023-05-07T05:12:44;16.00;99.90
26621;DHT22;14253;44.840;10.444;2023-05-07T05:15:12;16.00;99.90
26621;DHT22;14253;44.840;10.444;2023-05-07T05:17:39;16.00;99.90
26621;DHT22;14253;44.840;10.444;2023-05-07T05:20:07;16.10;99.90
26621;DHT22;14253;44.840;10.444;2023-05-07T05:22:35;16.00;99.90
26621;DHT22;14253;44.840;10.444;2023-05-07T05:25:01;16.00;99.90
26621;DHT22;14253;44.840;10.444;2023-05-07T05:27:28;16.00;99.90
26621;DHT22;14253;44.840;10.444;2023-05-07T05:29:55;16.10;99.90
26621;DHT22;14253;44.840;10.444;2023-05-07T05:32:21;16.20;99.90
26621;DHT22;14253;44.840;10.444;2023-05-07T05:34:48;16.30;99.90
26621;DHT22;14253;44.840;10.444;2023-05-07T05:37:14;16.40;99.90
26621;DHT22;14253;44.840;10.444;2023-05-07T05:39:40;16.30;99.90
26621;DHT22;14253;44.840;10.444;2023-05-07T05:42:08;16.30;99.90
26621;DHT22;14253;44.840;10.444;2023-05-07T05:44:35;16.30;99.90
26621;DHT22;14253;44.840;10.444;2023-05-07T05:47:02;16.40;99.90
26621;DHT22;14253;44.840;10.444;2023-05-07T05:49:28;16.40;99.90
26621;DHT22;14253;44.840;10.444;2023-05-07T05:51:55;16.50;99.90
26621;DHT22;14253;44.840;10.444;2023-05-07T05:54:23;16.60;99.90
26621;DHT22;14253;44.840;10.444;2023-05-07T05:56:49;16.60;99.90
26621;DHT22;14253;44.840;10.444;2023-05-07T05:59:16;16.80;99.90
26621;DHT22;14253;44.840;10.444;2023-05-07T06:01:42;16.80;99.90
26621;DHT22;14253;44.840;10.444;2023-05-07T06:04:08;16.90;99.90
26621;DHT22;14253;44.840;10.444;2023-05-07T06:06:34;17.00;99.90
26621;DHT22;14253;44.840;10.444;2023-05-07T06:09:01;17.20;99.90
26621;DHT22;14253;44.840;10.444;2023-05-07T06:11:35;17.20;99.90
26621;DHT22;14253;44.840;10.444;2023-05-07T06:14:01;17.40;99.90
26621;DHT22;14253;44.840;10.444;2023-05-07T06:16:28;17.50;99.90
26621;DHT22;14253;44.840;10.444;2023-05-07T06:18:55;17.60;99.90
26621;DHT22;14253;44.840;10.444;2023-05-07T06:21:21;17.60;99.90
26621;DHT22;14253;44.840;10.444;2023-05-07T06:23:47;17.60;99.90
26621;DHT22;14253;44.840;10.444;2023-05-07T06:26:13;17.80;99.90
26621;DHT22;14253;44.840;10.444;2023-05-07T06:28:42;18.00;99.90
26621;DHT22;14253;44.840;10.444;2023-05-07T06:31:20;18.20;99.90
26621;DHT22;14253;44.840;10.444;2023-05-07T06:33:52;18.40;99.90
26621;DHT22;14253;44.840;10.444;2023-05-07T06:36:19;18.60;99.90
26621;DHT22;14253;44.840;10.444;2023-05-07T06:38:45;18.70;99.90
26621;DHT22;14253;44.840;10.444;2023-05-07T06:41:11;18.80;99.90
26621;DHT22;14253;44.840;10.444;2023-05-07T06:43:38;18.90;99.90
26621;DHT22;14253;44.840;10.444;2023-05-07T06:46:27;19.20;99.90
26621;DHT22;14253;44.840;10.444;2023-05-07T06:48:53;19.20;99.90
26621;DHT22;14253;44.840;10.444;2023-05-07T06:51:20;19.20;99.90
26621;DHT22;14253;44.840;10.444;2023-05-07T06:53:46;19.60;99.90
26621;DHT22;14253;44.840;10.444;2023-05-07T06:56:12;19.80;99.90
26621;DHT22;14253;44.840;10.444;2023-05-07T06:58:39;20.00;99.90
26621;DHT22;14253;44.840;10.444;2023-05-07T07:01:06;20.20;99.90
26621;DHT22;14253;44.840;10.444;2023-05-07T07:03:32;20.50;99.90
26621;DHT22;14253;44.840;10.444;2023-05-07T07:05:58;20.60;99.90
26621;DHT22;14253;44.840;10.444;2023-05-07T07:08:25;20.80;99.90
26621;DHT22;14253;44.840;10.444;2023-05-07T07:10:51;20.90;99.90
26621;DHT22;14253;44.840;10.444;2023-05-07T07:13:17;21.00;99.90
26621;DHT22;14253;44.840;10.444;2023-05-07T07:15:43;21.30;99.90
26621;DHT22;14253;44.840;10.444;2023-05-07T07:18:10;21.30;99.90
26621;DHT22;14253;44.840;10.444;2023-05-07T07:20:37;21.40;99.90
26621;DHT22;14253;44.840;10.444;2023-05-07T07:23:04;21.70;99.90
26621;DHT22;14253;44.840;10.444;2023-05-07T07:25:30;21.60;99.90
26621;DHT22;14253;44.840;10.444;2023-05-07T07:27:56;21.60;99.90
26621;DHT22;14253;44.840;10.444;2023-05-07T07:30:25;21.90;99.90
26621;DHT22;14253;44.840;10.444;2023-05-07T07:32:51;21.90;99.90
26621;DHT22;14253;44.840;10.444;2023-05-07T07:35:19;22.10;99.90
26621;DHT22;14253;44.840;10.444;2023-05-07T07:37:48;22.10;99.90
26621;DHT22;14253;44.840;10.444;2023-05-07T07:40:15;22.60;99.90
26621;DHT22;14253;44.840;10.444;2023-05-07T07:42:42;22.90;99.90
26621;DHT22;14253;44.840;10.444;2023-05-07T07:45:09;23.10;99.90
26621;DHT22;14253;44.840;10.444;2023-05-07T07:47:40;23.00;99.90
26621;DHT22;14253;44.840;10.444;2023-05-07T07:50:07;22.90;99.90
26621;DHT22;14253;44.840;10.444;2023-05-07T07:52:33;23.20;99.90
26621;DHT22;14253;44.840;10.444;2023-05-07T07:54:59;23.20;99.90
26621;DHT22;14253;44.840;10.444;2023-05-07T07:57:25;23.30;99.90
26621;DHT22;14253;44.840;10.444;2023-05-07T07:59:52;23.30;99.90
26621;DHT22;14253;44.840;10.444;2023-05-07T08:02:19;23.30;99.90
26621;DHT22;14253;44.840;10.444;2023-05-07T08:04:45;23.20;99.90
26621;DHT22;14253;44.840;10.444;2023-05-07T08:07:12;23.20;99.90
26621;DHT22;14253;44.840;10.444;2023-05-07T08:09:41;23.30;99.90
26621;DHT22;14253;44.840;10.444;2023-05-07T08:12:08;23.50;99.90
26621;DHT22;14253;44.840;10.444;2023-05-07T08:14:34;23.70;99.90
26621;DHT22;14253;44.840;10.444;2023-05-07T08:17:03;23.70;99.90
26621;DHT22;14253;44.840;10.444;2023-05-07T08:19:29;23.80;99.90
26621;DHT22;14253;44.840;10.444;2023-05-07T08:21:55;23.90;99.90
26621;DHT22;14253;44.840;10.444;2023-05-07T08:24:23;24.00;99.90
26621;DHT22;14253;44.840;10.444;2023-05-07T08:26:49;24.10;99.90
26621;DHT22;14253;44.840;10.444;2023-05-07T08:29:15;24.20;99.90
26621;DHT22;14253;44.840;10.444;2023-05-07T08:31:42;24.40;99.90
26621;DHT22;14253;44.840;10.444;2023-05-07T08:34:08;24.60;99.90
26621;DHT22;14253;44.840;10.444;2023-05-07T08:36:37;24.80;99.90
26621;DHT22;14253;44.840;10.444;2023-05-07T08:39:03;25.00;99.90
26621;DHT22;14253;44.840;10.444;2023-05-07T08:41:30;25.10;99.90
26621;DHT22;14253;44.840;10.444;2023-05-07T08:43:58;25.20;99.90
26621;DHT22;14253;44.840;10.444;2023-05-07T08:46:30;25.10;99.90
26621;DHT22;14253;44.840;10.444;2023-05-07T08:48:56;25.30;99.90
26621;DHT22;14253;44.840;10.444;2023-05-07T08:51:22;25.50;99.90
26621;DHT22;14253;44.840;10.444;2023-05-07T08:53:49;25.50;99.90
26621;DHT22;14253;44.840;10.444;2023-05-07T08:56:21;25.80;99.90
26621;DHT22;14253;44.840;10.444;2023-05-07T08:58:48;25.70;99.90
26621;DHT22;14253;44.840;10.444;2023-05-07T09:01:16;25.90;99.90
26621;DHT22;14253;44.840;10.444;2023-05-07T09:03:46;26.40;99.90
26621;DHT22;14253;44.840;10.444;2023-05-07T09:06:13;26.30;99.90
26621;DHT22;14253;44.840;10.444;2023-05-07T09:08:40;26.40;99.90
26621;DHT22;14253;44.840;10.444;2023-05-07T09:11:07;26.40;99.90
26621;DHT22;14253;44.840;10.444;2023-05-07T09:13:33;26.30;99.90
26621;DHT22;14253;44.840;10.444;2023-05-07T09:16:13;26.20;99.90
26621;DHT22;14253;44.840;10.444;2023-05-07T09:18:43;26.30;99.90
26621;DHT22;14253;44.840;10.444;2023-05-07T09:21:15;26.60;99.90
26621;DHT22;14253;44.840;10.444;2023-05-07T09:23:41;26.60;99.90
26621;DHT22;14253;44.840;10.444;2023-05-07T09:26:08;26.90;99.90
26621;DHT22;14253;44.840;10.444;2023-05-07T09:28:42;27.20;99.90
26621;DHT22;14253;44.840;10.444;2023-05-07T09:31:11;27.50;99.90
26621;DHT22;14253;44.840;10.444;2023-05-07T09:33:38;27.50;99.90
26621;DHT22;14253;44.840;10.444;2023-05-07T09:36:07;27.30;99.90
26621;DHT22;14253;44.840;10.444;2023-05-07T09:38:35;27.20;99.90
26621;DHT22;14253;44.840;10.444;2023-05-07T09:41:09;27.10;99.90
26621;DHT22;14253;44.840;10.444;2023-05-07T09:43:54;27.30;99.90
26621;DHT22;14253;44.840;10.444;2023-05-07T09:46:30;27.50;99.90
26621;DHT22;14253;44.840;10.444;2023-05-07T09:49:01;27.60;99.90
26621;DHT22;14253;44.840;10.444;2023-05-07T09:51:34;27.80;99.90
26621;DHT22;14253;44.840;10.444;2023-05-07T09:54:04;27.80;99.90
26621;DHT22;14253;44.840;10.444;2023-05-07T09:56:34;27.50;99.90
26621;DHT22;14253;44.840;10.444;2023-05-07T09:59:06;27.30;99.90
26621;DHT22;14253;44.840;10.444;2023-05-07T10:01:36;27.00;99.90
26621;DHT22;14253;44.840;10.444;2023-05-07T10:04:02;26.90;99.90
26621;DHT22;14253;44.840;10.444;2023-05-07T10:06:37;27.10;99.90
26621;DHT22;14253;44.840;10.444;2023-05-07T10:09:05;27.50;99.90
26621;DHT22;14253;44.840;10.444;2023-05-07T10:11:35;27.80;99.90
26621;DHT22;14253;44.840;10.444;2023-05-07T10:14:03;27.90;99.90
26621;DHT22;14253;44.840;10.444;2023-05-07T10:16:33;28.00;99.90
26621;DHT22;14253;44.840;10.444;2023-05-07T10:19:05;28.10;99.90
26621;DHT22;14253;44.840;10.444;2023-05-07T10:21:36;28.10;99.90
26621;DHT22;14253;44.840;10.444;2023-05-07T10:24:19;27.90;99.90
26621;DHT22;14253;44.840;10.444;2023-05-07T10:26:49;27.50;99.90
26621;DHT22;14253;44.840;10.444;2023-05-07T10:29:21;27.50;99.90
26621;DHT22;14253;44.840;10.444;2023-05-07T10:34:39;27.80;99.90
26621;DHT22;14253;44.840;10.444;2023-05-07T10:37:07;27.50;99.90
26621;DHT22;14253;44.840;10.444;2023-05-07T10:39:34;27.90;99.90
26621;DHT22;14253;44.840;10.444;2023-05-07T10:42:10;28.00;99.90
26621;DHT22;14253;44.840;10.444;2023-05-07T10:44:44;28.30;99.90
26621;DHT22;14253;44.840;10.444;2023-05-07T10:47:19;28.40;99.90
26621;DHT22;14253;44.840;10.444;2023-05-07T10:52:24;27.70;99.90
26621;DHT22;14253;44.840;10.444;2023-05-07T10:58:26;28.00;99.90
26621;DHT22;14253;44.840;10.444;2023-05-07T11:00:59;28.30;99.90
26621;DHT22;14253;44.840;10.444;2023-05-07T11:03:32;28.60;99.90
26621;DHT22;14253;44.840;10.444;2023-05-07T11:06:16;28.30;99.90
26621;DHT22;14253;44.840;10.444;2023-05-07T11:08:55;27.80;99.90
26621;DHT22;14253;44.840;10.444;2023-05-07T11:11:47;28.00;99.90
26621;DHT22;14253;44.840;10.444;2023-05-07T11:14:43;28.10;99.90
26621;DHT22;14253;44.840;10.444;2023-05-07T11:17:14;28.40;99.90
26621;DHT22;14253;44.840;10.444;2023-05-07T11:19:56;28.50;99.90
26621;DHT22;14253;44.840;10.444;2023-05-07T11:25:30;28.90;99.90
26621;DHT22;14253;44.840;10.444;2023-05-07T11:28:10;28.90;99.90
26621;DHT22;14253;44.840;10.444;2023-05-07T11:30:42;29.00;99.90
26621;DHT22;14253;44.840;10.444;2023-05-07T11:33:13;28.80;99.90
26621;DHT22;14253;44.840;10.444;2023-05-07T11:35:43;28.70;99.90
26621;DHT22;14253;44.840;10.444;2023-05-07T11:38:15;28.50;99.90
26621;DHT22;14253;44.840;10.444;2023-05-07T11:40:51;28.40;99.90
26621;DHT22;14253;44.840;10.444;2023-05-07T11:43:17;28.40;99.90
26621;DHT22;14253;44.840;10.444;2023-05-07T11:45:47;28.60;99.90
26621;DHT22;14253;44.840;10.444;2023-05-07T11:48:14;28.90;99.90
26621;DHT22;14253;44.840;10.444;2023-05-07T11:53:26;28.70;99.90
26621;DHT22;14253;44.840;10.444;2023-05-07T11:55:56;28.80;99.90
26621;DHT22;14253;44.840;10.444;2023-05-07T11:58:24;28.90;99.90
26621;DHT22;14253;44.840;10.444;2023-05-07T12:00:52;29.00;99.90
26621;DHT22;14253;44.840;10.444;2023-05-07T12:03:18;29.30;99.90
26621;DHT22;14253;44.840;10.444;2023-05-07T12:05:45;29.50;99.90
26621;DHT22;14253;44.840;10.444;2023-05-07T12:08:15;29.20;99.90
26621;DHT22;14253;44.840;10.444;2023-05-07T12:10:48;29.20;99.90
26621;DHT22;14253;44.840;10.444;2023-05-07T12:13:22;28.80;99.90
26621;DHT22;14253;44.840;10.444;2023-05-07T12:15:52;28.80;99.90
26621;DHT22;14253;44.840;10.444;2023-05-07T12:18:18;29.00;99.90
26621;DHT22;14253;44.840;10.444;2023-05-07T12:20:45;29.00;99.90
26621;DHT22;14253;44.840;10.444;2023-05-07T12:23:13;29.20;99.90
26621;DHT22;14253;44.840;10.444;2023-05-07T12:25:42;29.30;99.90
26621;DHT22;14253;44.840;10.444;2023-05-07T12:28:15;29.20;99.90
26621;DHT22;14253;44.840;10.444;2023-05-07T12:30:43;29.00;99.90
26621;DHT22;14253;44.840;10.444;2023-05-07T12:33:10;28.80;99.90
26621;DHT22;14253;44.840;10.444;2023-05-07T12:35:39;29.20;99.90
26621;DHT22;14253;44.840;10.444;2023-05-07T12:38:16;29.50;99.90
26621;DHT22;14253;44.840;10.444;2023-05-07T12:40:47;29.50;99.90
26621;DHT22;14253;44.840;10.444;2023-05-07T12:43:20;29.70;99.90
26621;DHT22;14253;44.840;10.444;2023-05-07T12:45:50;29.80;99.90
26621;DHT22;14253;44.840;10.444;2023-05-07T12:48:16;30.10;99.90
26621;DHT22;14253;44.840;10.444;2023-05-07T12:50:43;29.90;99.90
26621;DHT22;14253;44.840;10.444;2023-05-07T12:53:10;29.90;99.90
26621;DHT22;14253;44.840;10.444;2023-05-07T12:55:44;29.70;99.90
26621;DHT22;14253;44.840;10.444;2023-05-07T12:58:21;29.80;99.90
26621;DHT22;14253;44.840;10.444;2023-05-07T13:00:49;29.90;99.90
26621;DHT22;14253;44.840;10.444;2023-05-07T13:03:30;29.80;99.90
26621;DHT22;14253;44.840;10.444;2023-05-07T13:06:05;29.80;99.90
26621;DHT22;14253;44.840;10.444;2023-05-07T13:08:36;29.50;99.90
26621;DHT22;14253;44.840;10.444;2023-05-07T13:11:08;29.60;99.90
26621;DHT22;14253;44.840;10.444;2023-05-07T13:13:36;29.50;99.90
26621;DHT22;14253;44.840;10.444;2023-05-07T13:16:03;29.50;99.90
26621;DHT22;14253;44.840;10.444;2023-05-07T13:18:30;29.60;99.90
26621;DHT22;14253;44.840;10.444;2023-05-07T13:20:56;29.80;99.90
26621;DHT22;14253;44.840;10.444;2023-05-07T13:23:23;29.80;99.90
26621;DHT22;14253;44.840;10.444;2023-05-07T13:25:49;29.80;99.90
26621;DHT22;14253;44.840;10.444;2023-05-07T13:28:16;29.60;99.90
26621;DHT22;14253;44.840;10.444;2023-05-07T13:30:44;29.60;99.90
26621;DHT22;14253;44.840;10.444;2023-05-07T13:33:10;29.50;99.90
26621;DHT22;14253;44.840;10.444;2023-05-07T13:35:36;29.60;99.90
26621;DHT22;14253;44.840;10.444;2023-05-07T13:38:02;29.60;99.90
26621;DHT22;14253;44.840;10.444;2023-05-07T13:40:28;29.80;99.90
26621;DHT22;14253;44.840;10.444;2023-05-07T13:42:56;29.70;99.90
26621;DHT22;14253;44.840;10.444;2023-05-07T13:45:22;29.70;99.90
26621;DHT22;14253;44.840;10.444;2023-05-07T13:47:51;29.90;99.90
26621;DHT22;14253;44.840;10.444;2023-05-07T13:50:17;29.90;99.90
26621;DHT22;14253;44.840;10.444;2023-05-07T13:52:44;30.00;99.90
26621;DHT22;14253;44.840;10.444;2023-05-07T13:55:20;30.10;99.90
26621;DHT22;14253;44.840;10.444;2023-05-07T13:57:47;30.20;99.90
26621;DHT22;14253;44.840;10.444;2023-05-07T14:00:14;30.10;99.90
26621;DHT22;14253;44.840;10.444;2023-05-07T14:02:41;30.20;99.90
26621;DHT22;14253;44.840;10.444;2023-05-07T14:05:07;30.10;99.90
26621;DHT22;14253;44.840;10.444;2023-05-07T14:07:34;30.20;99.90
26621;DHT22;14253;44.840;10.444;2023-05-07T14:10:01;30.00;99.90
26621;DHT22;14253;44.840;10.444;2023-05-07T14:12:27;29.90;99.90
26621;DHT22;14253;44.840;10.444;2023-05-07T14:14:53;29.70;99.90
26621;DHT22;14253;44.840;10.444;2023-05-07T14:17:19;29.90;99.90
26621;DHT22;14253;44.840;10.444;2023-05-07T14:19:45;30.10;99.90
26621;DHT22;14253;44.840;10.444;2023-05-07T14:22:13;30.10;99.90
26621;DHT22;14253;44.840;10.444;2023-05-07T14:24:40;29.90;99.90
26621;DHT22;14253;44.840;10.444;2023-05-07T14:27:06;29.70;99.90
26621;DHT22;14253;44.840;10.444;2023-05-07T14:29:32;30.10;99.90
26621;DHT22;14253;44.840;10.444;2023-05-07T14:32:01;30.00;99.90
26621;DHT22;14253;44.840;10.444;2023-05-07T14:34:28;29.90;99.90
26621;DHT22;14253;44.840;10.444;2023-05-07T14:36:54;29.70;99.90
26621;DHT22;14253;44.840;10.444;2023-05-07T14:39:21;29.50;99.90
26621;DHT22;14253;44.840;10.444;2023-05-07T14:41:47;29.40;99.90
26621;DHT22;14253;44.840;10.444;2023-05-07T14:44:13;29.50;99.90
26621;DHT22;14253;44.840;10.444;2023-05-07T14:46:39;29.60;99.90
26621;DHT22;14253;44.840;10.444;2023-05-07T14:49:05;29.80;99.90
26621;DHT22;14253;44.840;10.444;2023-05-07T14:51:31;29.60;99.90
26621;DHT22;14253;44.840;10.444;2023-05-07T14:53:58;29.60;99.90
26621;DHT22;14253;44.840;10.444;2023-05-07T14:56:25;29.70;99.90
26621;DHT22;14253;44.840;10.444;2023-05-07T14:58:52;29.60;99.90
26621;DHT22;14253;44.840;10.444;2023-05-07T15:01:26;29.80;99.90
26621;DHT22;14253;44.840;10.444;2023-05-07T15:03:54;29.70;99.90
26621;DHT22;14253;44.840;10.444;2023-05-07T15:06:21;29.60;99.90
26621;DHT22;14253;44.840;10.444;2023-05-07T15:08:47;29.60;99.90
26621;DHT22;14253;44.840;10.444;2023-05-07T15:11:16;29.90;99.90
26621;DHT22;14253;44.840;10.444;2023-05-07T15:13:42;29.80;99.90
26621;DHT22;14253;44.840;10.444;2023-05-07T15:16:08;29.50;99.90
26621;DHT22;14253;44.840;10.444;2023-05-07T15:18:34;29.20;99.90
26621;DHT22;14253;44.840;10.444;2023-05-07T15:21:00;29.20;99.90
26621;DHT22;14253;44.840;10.444;2023-05-07T15:23:26;29.10;99.90
26621;DHT22;14253;44.840;10.444;2023-05-07T15:25:52;29.10;99.90
26621;DHT22;14253;44.840;10.444;2023-05-07T15:28:19;29.20;99.90
26621;DHT22;14253;44.840;10.444;2023-05-07T15:30:45;29.50;99.90
26621;DHT22;14253;44.840;10.444;2023-05-07T15:33:11;29.80;99.90
26621;DHT22;14253;44.840;10.444;2023-05-07T15:35:37;30.10;99.90